sensor_id;sensor_type;location;lat;lon;timestamp;P1;durP1;ratioP1;P2;durP2;ratioP2
20713;SDS011;10518;50.742;4.226;2022-12-29T00:01:36;0.80;;;0.80;;
20713;SDS011;10518;50.742;4.226;2022-12-29T00:04:03;0.93;;;0.80;;
20713;SDS011;10518;50.742;4.226;2022-12-29T00:06:29;1.03;;;1.00;;
20713;SDS011;10518;50.742;4.226;2022-12-29T00:08:56;0.60;;;0.60;;
20713;SDS011;10518;50.742;4.226;2022-12-29T00:11:25;1.20;;;0.60;;
20713;SDS011;10518;50.742;4.226;2022-12-29T00:13:52;0.60;;;0.60;;
20713;SDS011;10518;50.742;4.226;2022-12-29T00:16:37;1.10;;;0.73;;
20713;SDS011;10518;50.742;4.226;2022-12-29T00:19:05;0.60;;;0.60;;
20713;SDS011;10518;50.742;4.226;2022-12-29T00:21:31;2.53;;;0.70;;
20713;SDS011;10518;50.742;4.226;2022-12-29T00:24:17;0.50;;;0.50;;
20713;SDS011;10518;50.742;4.226;2022-12-29T00:27:11;0.77;;;0.60;;
20713;SDS011;10518;50.742;4.226;2022-12-29T00:29:55;0.60;;;0.60;;
20713;SDS011;10518;50.742;4.226;2022-12-29T00:32:40;0.60;;;0.60;;
20713;SDS011;10518;50.742;4.226;2022-12-29T00:35:29;0.60;;;0.60;;
20713;SDS011;10518;50.742;4.226;2022-12-29T00:37:59;0.40;;;0.40;;
20713;SDS011;10518;50.742;4.226;2022-12-29T00:41:03;2.83;;;0.60;;
20713;SDS011;10518;50.742;4.226;2022-12-29T00:43:47;0.40;;;0.40;;
20713;SDS011;10518;50.742;4.226;2022-12-29T00:46:34;0.63;;;0.63;;
20713;SDS011;10518;50.742;4.226;2022-12-29T00:49:04;0.60;;;0.60;;
20713;SDS011;10518;50.742;4.226;2022-12-29T00:51:49;1.90;;;1.60;;
20713;SDS011;10518;50.742;4.226;2022-12-29T00:54:16;0.50;;;0.50;;
20713;SDS011;10518;50.742;4.226;2022-12-29T00:56:42;0.60;;;0.60;;
20713;SDS011;10518;50.742;4.226;2022-12-29T00:59:09;1.20;;;1.10;;
20713;SDS011;10518;50.742;4.226;2022-12-29T01:01:36;0.50;;;0.50;;
20713;SDS011;10518;50.742;4.226;2022-12-29T01:04:03;0.93;;;0.53;;
20713;SDS011;10518;50.742;4.226;2022-12-29T01:06:29;0.73;;;0.73;;
20713;SDS011;10518;50.742;4.226;2022-12-29T01:08:55;1.53;;;0.83;;
20713;SDS011;10518;50.742;4.226;2022-12-29T01:11:39;0.80;;;0.80;;
20713;SDS011;10518;50.742;4.226;2022-12-29T01:14:05;1.07;;;1.07;;
20713;SDS011;10518;50.742;4.226;2022-12-29T01:16:31;1.50;;;1.40;;
20713;SDS011;10518;50.742;4.226;2022-12-29T01:18:57;1.77;;;1.40;;
20713;SDS011;10518;50.742;4.226;2022-12-29T01:21:23;2.87;;;1.70;;
20713;SDS011;10518;50.742;4.226;2022-12-29T01:23:49;1.90;;;1.80;;
20713;SDS011;10518;50.742;4.226;2022-12-29T01:26:15;4.20;;;1.80;;
20713;SDS011;10518;50.742;4.226;2022-12-29T01:28:41;2.53;;;2.43;;
20713;SDS011;10518;50.742;4.226;2022-12-29T01:31:08;2.50;;;2.40;;
20713;SDS011;10518;50.742;4.226;2022-12-29T01:33:34;2.80;;;2.70;;
20713;SDS011;10518;50.742;4.226;2022-12-29T01:36:00;3.10;;;3.00;;
20713;SDS011;10518;50.742;4.226;2022-12-29T01:38:27;3.80;;;3.60;;
20713;SDS011;10518;50.742;4.226;2022-12-29T01:40:52;3.97;;;3.77;;
20713;SDS011;10518;50.742;4.226;2022-12-29T01:43:18;4.43;;;4.23;;
20713;SDS011;10518;50.742;4.226;2022-12-29T01:45:45;4.40;;;4.20;;
20713;SDS011;10518;50.742;4.226;2022-12-29T01:48:15;3.10;;;2.90;;
20713;SDS011;10518;50.742;4.226;2022-12-29T01:50:44;2.50;;;2.40;;
20713;SDS011;10518;50.742;4.226;2022-12-29T01:53:20;1.90;;;1.80;;
20713;SDS011;10518;50.742;4.226;2022-12-29T01:55:51;1.70;;;1.70;;
20713;SDS011;10518;50.742;4.226;2022-12-29T01:58:21;1.50;;;1.50;;
20713;SDS011;10518;50.742;4.226;2022-12-29T02:00:49;1.40;;;1.40;;
20713;SDS011;10518;50.742;4.226;2022-12-29T02:03:16;2.10;;;2.00;;
20713;SDS011;10518;50.742;4.226;2022-12-29T02:05:51;2.10;;;2.00;;
20713;SDS011;10518;50.742;4.226;2022-12-29T02:08:18;2.40;;;2.30;;
20713;SDS011;10518;50.742;4.226;2022-12-29T02:10:46;2.73;;;2.63;;
20713;SDS011;10518;50.742;4.226;2022-12-29T02:13:14;3.37;;;3.27;;
20713;SDS011;10518;50.742;4.226;2022-12-29T02:15:58;3.30;;;3.20;;
20713;SDS011;10518;50.742;4.226;2022-12-29T02:21:22;3.70;;;3.60;;
20713;SDS011;10518;50.742;4.226;2022-12-29T02:24:15;3.20;;;3.10;;
20713;SDS011;10518;50.742;4.226;2022-12-29T02:45:44;1.60;;;1.50;;
20713;SDS011;10518;50.742;4.226;2022-12-29T02:51:03;1.47;;;1.47;;
20713;SDS011;10518;50.742;4.226;2022-12-29T02:53:32;1.40;;;1.40;;
20713;SDS011;10518;50.742;4.226;2022-12-29T02:56:18;2.30;;;2.20;;
20713;SDS011;10518;50.742;4.226;2022-12-29T02:58:43;2.40;;;2.30;;
20713;SDS011;10518;50.742;4.226;2022-12-29T03:06:33;3.40;;;3.30;;
20713;SDS011;10518;50.742;4.226;2022-12-29T03:12:17;4.50;;;4.30;;
20713;SDS011;10518;50.742;4.226;2022-12-29T03:17:54;5.90;;;5.60;;
20713;SDS011;10518;50.742;4.226;2022-12-29T03:20:32;5.10;;;4.90;;
20713;SDS011;10518;50.742;4.226;2022-12-29T03:23:06;3.70;;;3.60;;
20713;SDS011;10518;50.742;4.226;2022-12-29T03:25:37;4.10;;;3.90;;
20713;SDS011;10518;50.742;4.226;2022-12-29T03:28:08;3.83;;;3.63;;
20713;SDS011;10518;50.742;4.226;2022-12-29T03:30:37;3.37;;;3.27;;
20713;SDS011;10518;50.742;4.226;2022-12-29T03:33:07;3.50;;;3.30;;
20713;SDS011;10518;50.742;4.226;2022-12-29T03:35:37;3.30;;;3.10;;
20713;SDS011;10518;50.742;4.226;2022-12-29T03:38:25;3.30;;;3.20;;
20713;SDS011;10518;50.742;4.226;2022-12-29T03:41:00;6.30;;;2.50;;
20713;SDS011;10518;50.742;4.226;2022-12-29T03:43:29;2.30;;;2.20;;
20713;SDS011;10518;50.742;4.226;2022-12-29T03:45:55;1.77;;;1.77;;
20713;SDS011;10518;50.742;4.226;2022-12-29T03:48:20;3.07;;;1.83;;
20713;SDS011;10518;50.742;4.226;2022-12-29T03:50:46;3.03;;;1.77;;
20713;SDS011;10518;50.742;4.226;2022-12-29T03:53:11;2.17;;;1.97;;
20713;SDS011;10518;50.742;4.226;2022-12-29T03:55:37;3.40;;;1.27;;
20713;SDS011;10518;50.742;4.226;2022-12-29T03:58:03;1.00;;;1.00;;
20713;SDS011;10518;50.742;4.226;2022-12-29T04:00:28;4.10;;;1.10;;
20713;SDS011;10518;50.742;4.226;2022-12-29T04:02:54;3.63;;;1.00;;
20713;SDS011;10518;50.742;4.226;2022-12-29T04:05:20;3.13;;;1.03;;
20713;SDS011;10518;50.742;4.226;2022-12-29T04:07:45;0.73;;;0.73;;
20713;SDS011;10518;50.742;4.226;2022-12-29T04:10:11;0.70;;;0.70;;
20713;SDS011;10518;50.742;4.226;2022-12-29T04:12:37;0.70;;;0.70;;
20713;SDS011;10518;50.742;4.226;2022-12-29T04:15:03;3.47;;;0.70;;
20713;SDS011;10518;50.742;4.226;2022-12-29T04:17:29;0.67;;;0.67;;
20713;SDS011;10518;50.742;4.226;2022-12-29T04:19:54;0.90;;;0.90;;
20713;SDS011;10518;50.742;4.226;2022-12-29T04:22:40;1.43;;;1.17;;
20713;SDS011;10518;50.742;4.226;2022-12-29T04:25:05;3.20;;;1.67;;
20713;SDS011;10518;50.742;4.226;2022-12-29T04:27:31;1.33;;;1.33;;
20713;SDS011;10518;50.742;4.226;2022-12-29T04:29:57;1.83;;;1.50;;
20713;SDS011;10518;50.742;4.226;2022-12-29T04:32:22;5.60;;;1.83;;
20713;SDS011;10518;50.742;4.226;2022-12-29T04:34:48;1.70;;;1.70;;
20713;SDS011;10518;50.742;4.226;2022-12-29T04:37:13;1.40;;;1.40;;
20713;SDS011;10518;50.742;4.226;2022-12-29T04:39:39;1.87;;;1.80;;
20713;SDS011;10518;50.742;4.226;2022-12-29T04:42:04;2.10;;;2.00;;
20713;SDS011;10518;50.742;4.226;2022-12-29T04:44:30;1.77;;;1.70;;
20713;SDS011;10518;50.742;4.226;2022-12-29T04:46:56;1.60;;;1.60;;
20713;SDS011;10518;50.742;4.226;2022-12-29T04:49:21;1.60;;;1.50;;
20713;SDS011;10518;50.742;4.226;2022-12-29T04:51:47;1.60;;;1.50;;
20713;SDS011;10518;50.742;4.226;2022-12-29T04:54:12;5.80;;;1.30;;
20713;SDS011;10518;50.742;4.226;2022-12-29T04:56:38;1.00;;;1.00;;
20713;SDS011;10518;50.742;4.226;2022-12-29T04:59:03;1.47;;;1.07;;
20713;SDS011;10518;50.742;4.226;2022-12-29T05:01:29;2.60;;;1.00;;
20713;SDS011;10518;50.742;4.226;2022-12-29T05:03:55;0.83;;;0.80;;
20713;SDS011;10518;50.742;4.226;2022-12-29T05:06:20;0.70;;;0.70;;
20713;SDS011;10518;50.742;4.226;2022-12-29T05:08:46;0.73;;;0.73;;
20713;SDS011;10518;50.742;4.226;2022-12-29T05:11:11;3.80;;;1.00;;
20713;SDS011;10518;50.742;4.226;2022-12-29T05:13:37;1.43;;;1.00;;
20713;SDS011;10518;50.742;4.226;2022-12-29T05:16:02;7.40;;;1.10;;
20713;SDS011;10518;50.742;4.226;2022-12-29T05:18:28;1.23;;;1.00;;
20713;SDS011;10518;50.742;4.226;2022-12-29T05:20:54;2.30;;;1.63;;
20713;SDS011;10518;50.742;4.226;2022-12-29T05:23:19;1.10;;;1.10;;
20713;SDS011;10518;50.742;4.226;2022-12-29T05:25:45;0.80;;;0.80;;
20713;SDS011;10518;50.742;4.226;2022-12-29T05:28:10;0.90;;;0.90;;
20713;SDS011;10518;50.742;4.226;2022-12-29T05:30:36;0.90;;;0.73;;
20713;SDS011;10518;50.742;4.226;2022-12-29T05:33:02;2.83;;;1.27;;
20713;SDS011;10518;50.742;4.226;2022-12-29T05:35:28;1.53;;;0.90;;
20713;SDS011;10518;50.742;4.226;2022-12-29T05:37:53;4.00;;;0.63;;
20713;SDS011;10518;50.742;4.226;2022-12-29T05:40:19;1.90;;;0.87;;
20713;SDS011;10518;50.742;4.226;2022-12-29T05:42:46;1.30;;;0.83;;
20713;SDS011;10518;50.742;4.226;2022-12-29T05:45:11;1.03;;;0.57;;
20713;SDS011;10518;50.742;4.226;2022-12-29T05:47:37;0.70;;;0.70;;
20713;SDS011;10518;50.742;4.226;2022-12-29T05:50:02;0.40;;;0.40;;
20713;SDS011;10518;50.742;4.226;2022-12-29T05:52:28;11.13;;;0.80;;
20713;SDS011;10518;50.742;4.226;2022-12-29T05:54:54;0.93;;;0.60;;
20713;SDS011;10518;50.742;4.226;2022-12-29T05:57:19;0.70;;;0.70;;
20713;SDS011;10518;50.742;4.226;2022-12-29T05:59:45;7.20;;;0.70;;
20713;SDS011;10518;50.742;4.226;2022-12-29T06:02:10;1.13;;;0.60;;
20713;SDS011;10518;50.742;4.226;2022-12-29T06:04:36;0.40;;;0.40;;
20713;SDS011;10518;50.742;4.226;2022-12-29T06:07:01;1.30;;;0.50;;
20713;SDS011;10518;50.742;4.226;2022-12-29T06:09:27;1.37;;;0.70;;
20713;SDS011;10518;50.742;4.226;2022-12-29T06:11:53;0.40;;;0.40;;
20713;SDS011;10518;50.742;4.226;2022-12-29T06:14:18;2.87;;;0.50;;
20713;SDS011;10518;50.742;4.226;2022-12-29T06:16:44;10.03;;;1.30;;
20713;SDS011;10518;50.742;4.226;2022-12-29T06:19:09;0.83;;;0.60;;
20713;SDS011;10518;50.742;4.226;2022-12-29T06:21:35;0.60;;;0.60;;
20713;SDS011;10518;50.742;4.226;2022-12-29T06:24:02;3.23;;;0.57;;
20713;SDS011;10518;50.742;4.226;2022-12-29T06:26:27;0.60;;;0.60;;
20713;SDS011;10518;50.742;4.226;2022-12-29T06:28:53;0.60;;;0.60;;
20713;SDS011;10518;50.742;4.226;2022-12-29T06:31:19;0.73;;;0.50;;
20713;SDS011;10518;50.742;4.226;2022-12-29T06:33:44;5.30;;;0.70;;
20713;SDS011;10518;50.742;4.226;2022-12-29T06:36:10;5.50;;;0.93;;
20713;SDS011;10518;50.742;4.226;2022-12-29T06:38:35;1.10;;;0.63;;
20713;SDS011;10518;50.742;4.226;2022-12-29T06:41:01;0.77;;;0.60;;
20713;SDS011;10518;50.742;4.226;2022-12-29T06:43:26;2.70;;;0.90;;
20713;SDS011;10518;50.742;4.226;2022-12-29T06:45:52;0.60;;;0.60;;
20713;SDS011;10518;50.742;4.226;2022-12-29T06:48:18;1.60;;;0.70;;
20713;SDS011;10518;50.742;4.226;2022-12-29T06:50:43;2.47;;;1.07;;
20713;SDS011;10518;50.742;4.226;2022-12-29T06:53:09;3.40;;;0.77;;
20713;SDS011;10518;50.742;4.226;2022-12-29T06:55:34;5.83;;;0.93;;
20713;SDS011;10518;50.742;4.226;2022-12-29T06:58:00;5.30;;;0.60;;
20713;SDS011;10518;50.742;4.226;2022-12-29T07:00:26;0.47;;;0.47;;
20713;SDS011;10518;50.742;4.226;2022-12-29T07:02:51;0.53;;;0.53;;
20713;SDS011;10518;50.742;4.226;2022-12-29T07:05:19;0.77;;;0.57;;
20713;SDS011;10518;50.742;4.226;2022-12-29T07:07:44;0.97;;;0.60;;
20713;SDS011;10518;50.742;4.226;2022-12-29T07:10:10;0.50;;;0.50;;
20713;SDS011;10518;50.742;4.226;2022-12-29T07:12:36;5.77;;;1.17;;
20713;SDS011;10518;50.742;4.226;2022-12-29T07:15:01;2.50;;;0.87;;
20713;SDS011;10518;50.742;4.226;2022-12-29T07:17:27;2.17;;;0.73;;
20713;SDS011;10518;50.742;4.226;2022-12-29T07:19:53;5.00;;;1.00;;
20713;SDS011;10518;50.742;4.226;2022-12-29T07:22:18;4.03;;;0.83;;
20713;SDS011;10518;50.742;4.226;2022-12-29T07:24:44;0.37;;;0.37;;
20713;SDS011;10518;50.742;4.226;2022-12-29T07:27:09;1.50;;;0.50;;
20713;SDS011;10518;50.742;4.226;2022-12-29T07:29:38;5.87;;;0.87;;
20713;SDS011;10518;50.742;4.226;2022-12-29T07:32:04;4.37;;;0.60;;
20713;SDS011;10518;50.742;4.226;2022-12-29T07:34:29;0.50;;;0.50;;
20713;SDS011;10518;50.742;4.226;2022-12-29T07:36:55;2.40;;;1.57;;
20713;SDS011;10518;50.742;4.226;2022-12-29T07:39:21;0.73;;;0.60;;
20713;SDS011;10518;50.742;4.226;2022-12-29T07:41:47;2.30;;;0.60;;
20713;SDS011;10518;50.742;4.226;2022-12-29T07:44:13;0.53;;;0.40;;
20713;SDS011;10518;50.742;4.226;2022-12-29T07:46:38;0.50;;;0.40;;
20713;SDS011;10518;50.742;4.226;2022-12-29T07:49:04;2.63;;;0.73;;
20713;SDS011;10518;50.742;4.226;2022-12-29T07:51:30;4.90;;;1.07;;
20713;SDS011;10518;50.742;4.226;2022-12-29T07:53:56;0.77;;;0.50;;
20713;SDS011;10518;50.742;4.226;2022-12-29T07:56:24;1.33;;;0.63;;
20713;SDS011;10518;50.742;4.226;2022-12-29T07:58:49;8.70;;;1.47;;
20713;SDS011;10518;50.742;4.226;2022-12-29T08:01:15;0.60;;;0.60;;
20713;SDS011;10518;50.742;4.226;2022-12-29T08:03:40;5.10;;;0.97;;
20713;SDS011;10518;50.742;4.226;2022-12-29T08:06:08;0.97;;;0.73;;
20713;SDS011;10518;50.742;4.226;2022-12-29T08:08:34;2.00;;;0.67;;
20713;SDS011;10518;50.742;4.226;2022-12-29T08:11:00;2.13;;;0.83;;
20713;SDS011;10518;50.742;4.226;2022-12-29T08:13:25;4.57;;;0.83;;
20713;SDS011;10518;50.742;4.226;2022-12-29T08:15:51;0.73;;;0.37;;
20713;SDS011;10518;50.742;4.226;2022-12-29T08:18:17;2.97;;;0.97;;
20713;SDS011;10518;50.742;4.226;2022-12-29T08:20:42;2.10;;;0.90;;
20713;SDS011;10518;50.742;4.226;2022-12-29T08:23:08;2.20;;;0.97;;
20713;SDS011;10518;50.742;4.226;2022-12-29T08:25:33;1.03;;;1.03;;
20713;SDS011;10518;50.742;4.226;2022-12-29T08:27:59;0.33;;;0.33;;
20713;SDS011;10518;50.742;4.226;2022-12-29T08:30:24;5.00;;;0.80;;
20713;SDS011;10518;50.742;4.226;2022-12-29T08:32:50;0.30;;;0.30;;
20713;SDS011;10518;50.742;4.226;2022-12-29T08:35:15;4.07;;;1.10;;
20713;SDS011;10518;50.742;4.226;2022-12-29T08:37:41;0.57;;;0.57;;
20713;SDS011;10518;50.742;4.226;2022-12-29T08:40:07;3.93;;;0.60;;
20713;SDS011;10518;50.742;4.226;2022-12-29T08:42:33;0.73;;;0.70;;
20713;SDS011;10518;50.742;4.226;2022-12-29T08:44:59;1.83;;;0.50;;
20713;SDS011;10518;50.742;4.226;2022-12-29T08:47:25;4.00;;;1.27;;
20713;SDS011;10518;50.742;4.226;2022-12-29T08:49:51;3.07;;;0.50;;
20713;SDS011;10518;50.742;4.226;2022-12-29T08:52:17;2.30;;;0.40;;
20713;SDS011;10518;50.742;4.226;2022-12-29T08:54:42;2.73;;;0.93;;
20713;SDS011;10518;50.742;4.226;2022-12-29T08:57:08;6.07;;;0.77;;
20713;SDS011;10518;50.742;4.226;2022-12-29T08:59:34;1.27;;;0.67;;
20713;SDS011;10518;50.742;4.226;2022-12-29T09:01:59;3.43;;;0.40;;
20713;SDS011;10518;50.742;4.226;2022-12-29T09:04:26;0.47;;;0.47;;
20713;SDS011;10518;50.742;4.226;2022-12-29T09:06:52;1.57;;;0.70;;
20713;SDS011;10518;50.742;4.226;2022-12-29T09:09:18;2.03;;;0.50;;
20713;SDS011;10518;50.742;4.226;2022-12-29T09:11:44;0.53;;;0.53;;
20713;SDS011;10518;50.742;4.226;2022-12-29T09:14:10;0.63;;;0.60;;
20713;SDS011;10518;50.742;4.226;2022-12-29T09:16:36;6.60;;;0.73;;
20713;SDS011;10518;50.742;4.226;2022-12-29T09:19:02;8.07;;;0.77;;
20713;SDS011;10518;50.742;4.226;2022-12-29T09:21:27;4.63;;;0.73;;
20713;SDS011;10518;50.742;4.226;2022-12-29T09:23:53;3.53;;;0.90;;
20713;SDS011;10518;50.742;4.226;2022-12-29T09:26:19;1.13;;;1.03;;
20713;SDS011;10518;50.742;4.226;2022-12-29T09:28:44;1.40;;;0.40;;
20713;SDS011;10518;50.742;4.226;2022-12-29T09:31:10;3.70;;;0.60;;
20713;SDS011;10518;50.742;4.226;2022-12-29T09:33:36;0.60;;;0.60;;
20713;SDS011;10518;50.742;4.226;2022-12-29T09:36:02;0.93;;;0.30;;
20713;SDS011;10518;50.742;4.226;2022-12-29T09:38:29;3.53;;;1.00;;
20713;SDS011;10518;50.742;4.226;2022-12-29T09:41:18;0.73;;;0.70;;
20713;SDS011;10518;50.742;4.226;2022-12-29T09:46:33;0.73;;;0.30;;
20713;SDS011;10518;50.742;4.226;2022-12-29T09:51:51;1.70;;;0.83;;
20713;SDS011;10518;50.742;4.226;2022-12-29T09:56:55;0.60;;;0.37;;
20713;SDS011;10518;50.742;4.226;2022-12-29T09:59:22;1.03;;;0.60;;
20713;SDS011;10518;50.742;4.226;2022-12-29T10:02:16;4.30;;;1.30;;
20713;SDS011;10518;50.742;4.226;2022-12-29T10:04:53;5.30;;;0.60;;
20713;SDS011;10518;50.742;4.226;2022-12-29T10:07:32;2.13;;;0.67;;
20713;SDS011;10518;50.742;4.226;2022-12-29T10:12:51;2.43;;;1.17;;
20713;SDS011;10518;50.742;4.226;2022-12-29T10:15:26;0.50;;;0.50;;
20713;SDS011;10518;50.742;4.226;2022-12-29T10:18:20;3.90;;;0.43;;
20713;SDS011;10518;50.742;4.226;2022-12-29T10:21:08;0.60;;;0.60;;
20713;SDS011;10518;50.742;4.226;2022-12-29T10:23:50;4.70;;;1.27;;
20713;SDS011;10518;50.742;4.226;2022-12-29T10:26:18;4.00;;;1.33;;
20713;SDS011;10518;50.742;4.226;2022-12-29T10:29:05;0.40;;;0.40;;
20713;SDS011;10518;50.742;4.226;2022-12-29T10:31:40;4.13;;;1.03;;
20713;SDS011;10518;50.742;4.226;2022-12-29T10:34:36;1.40;;;1.30;;
20713;SDS011;10518;50.742;4.226;2022-12-29T10:39:51;6.40;;;0.80;;
20713;SDS011;10518;50.742;4.226;2022-12-29T10:44:51;2.40;;;0.50;;
20713;SDS011;10518;50.742;4.226;2022-12-29T10:47:18;1.20;;;0.60;;
20713;SDS011;10518;50.742;4.226;2022-12-29T10:49:50;2.43;;;0.47;;
20713;SDS011;10518;50.742;4.226;2022-12-29T10:52:17;9.43;;;1.13;;
20713;SDS011;10518;50.742;4.226;2022-12-29T10:54:53;4.53;;;0.57;;
20713;SDS011;10518;50.742;4.226;2022-12-29T10:57:46;6.05;;;1.00;;
20713;SDS011;10518;50.742;4.226;2022-12-29T11:00:14;2.70;;;0.73;;
20713;SDS011;10518;50.742;4.226;2022-12-29T11:08:17;2.80;;;0.40;;
20713;SDS011;10518;50.742;4.226;2022-12-29T11:10:46;3.40;;;1.00;;
20713;SDS011;10518;50.742;4.226;2022-12-29T11:13:28;3.03;;;1.03;;
20713;SDS011;10518;50.742;4.226;2022-12-29T11:15:55;1.10;;;0.57;;
20713;SDS011;10518;50.742;4.226;2022-12-29T11:20:47;1.00;;;0.67;;
20713;SDS011;10518;50.742;4.226;2022-12-29T11:23:21;1.90;;;0.80;;
20713;SDS011;10518;50.742;4.226;2022-12-29T11:26:07;3.40;;;1.23;;
20713;SDS011;10518;50.742;4.226;2022-12-29T11:28:39;1.67;;;0.60;;
20713;SDS011;10518;50.742;4.226;2022-12-29T11:31:08;1.83;;;0.50;;
20713;SDS011;10518;50.742;4.226;2022-12-29T11:33:35;5.10;;;0.70;;
20713;SDS011;10518;50.742;4.226;2022-12-29T11:36:08;2.00;;;1.20;;
20713;SDS011;10518;50.742;4.226;2022-12-29T11:38:39;0.67;;;0.67;;
20713;SDS011;10518;50.742;4.226;2022-12-29T11:41:06;0.60;;;0.60;;
20713;SDS011;10518;50.742;4.226;2022-12-29T11:43:37;2.73;;;0.73;;
20713;SDS011;10518;50.742;4.226;2022-12-29T11:46:05;0.83;;;0.60;;
20713;SDS011;10518;50.742;4.226;2022-12-29T11:48:33;2.83;;;1.23;;
20713;SDS011;10518;50.742;4.226;2022-12-29T11:51:04;7.10;;;0.70;;
20713;SDS011;10518;50.742;4.226;2022-12-29T11:53:44;2.67;;;0.50;;
20713;SDS011;10518;50.742;4.226;2022-12-29T11:56:13;0.60;;;0.60;;
20713;SDS011;10518;50.742;4.226;2022-12-29T11:58:41;3.00;;;0.63;;
20713;SDS011;10518;50.742;4.226;2022-12-29T12:01:15;4.50;;;0.60;;
20713;SDS011;10518;50.742;4.226;2022-12-29T12:04:07;6.50;;;1.10;;
20713;SDS011;10518;50.742;4.226;2022-12-29T12:06:36;2.73;;;1.23;;
20713;SDS011;10518;50.742;4.226;2022-12-29T12:09:16;3.00;;;1.57;;
20713;SDS011;10518;50.742;4.226;2022-12-29T12:11:48;2.83;;;0.70;;
20713;SDS011;10518;50.742;4.226;2022-12-29T12:14:23;2.10;;;0.57;;
20713;SDS011;10518;50.742;4.226;2022-12-29T12:17:08;0.97;;;0.70;;
20713;SDS011;10518;50.742;4.226;2022-12-29T12:24:54;5.40;;;0.73;;
20713;SDS011;10518;50.742;4.226;2022-12-29T12:27:42;7.00;;;1.33;;
20713;SDS011;10518;50.742;4.226;2022-12-29T12:30:22;2.30;;;0.57;;
20713;SDS011;10518;50.742;4.226;2022-12-29T12:32:56;0.60;;;0.50;;
20713;SDS011;10518;50.742;4.226;2022-12-29T12:43:28;3.00;;;0.80;;
20713;SDS011;10518;50.742;4.226;2022-12-29T12:57:11;1.13;;;0.93;;
20713;SDS011;10518;50.742;4.226;2022-12-29T13:00:00;5.53;;;0.60;;
20713;SDS011;10518;50.742;4.226;2022-12-29T13:02:36;0.67;;;0.67;;
20713;SDS011;10518;50.742;4.226;2022-12-29T13:16:16;5.70;;;0.70;;
20713;SDS011;10518;50.742;4.226;2022-12-29T13:21:46;2.60;;;0.70;;
20713;SDS011;10518;50.742;4.226;2022-12-29T13:30:09;6.40;;;0.53;;
20713;SDS011;10518;50.742;4.226;2022-12-29T13:35:52;1.07;;;0.50;;
20713;SDS011;10518;50.742;4.226;2022-12-29T13:41:04;0.90;;;0.73;;
20713;SDS011;10518;50.742;4.226;2022-12-29T13:43:34;3.80;;;0.63;;
20713;SDS011;10518;50.742;4.226;2022-12-29T13:46:06;0.67;;;0.60;;
20713;SDS011;10518;50.742;4.226;2022-12-29T13:48:53;1.67;;;1.57;;
20713;SDS011;10518;50.742;4.226;2022-12-29T13:51:23;1.63;;;0.77;;
20713;SDS011;10518;50.742;4.226;2022-12-29T13:53:55;0.50;;;0.50;;
20713;SDS011;10518;50.742;4.226;2022-12-29T13:56:42;5.67;;;0.97;;
20713;SDS011;10518;50.742;4.226;2022-12-29T13:59:20;3.37;;;0.60;;
20713;SDS011;10518;50.742;4.226;2022-12-29T14:01:55;2.93;;;1.33;;
20713;SDS011;10518;50.742;4.226;2022-12-29T14:04:29;3.30;;;0.90;;
20713;SDS011;10518;50.742;4.226;2022-12-29T14:09:37;0.87;;;0.63;;
20713;SDS011;10518;50.742;4.226;2022-12-29T14:14:52;2.53;;;0.83;;
20713;SDS011;10518;50.742;4.226;2022-12-29T14:17:20;4.53;;;0.67;;
20713;SDS011;10518;50.742;4.226;2022-12-29T14:19:46;0.40;;;0.40;;
20713;SDS011;10518;50.742;4.226;2022-12-29T14:22:27;5.10;;;0.60;;
20713;SDS011;10518;50.742;4.226;2022-12-29T14:24:53;2.20;;;0.67;;
20713;SDS011;10518;50.742;4.226;2022-12-29T14:29:45;1.87;;;0.60;;
20713;SDS011;10518;50.742;4.226;2022-12-29T14:34:54;0.40;;;0.40;;
20713;SDS011;10518;50.742;4.226;2022-12-29T14:37:28;0.50;;;0.50;;
20713;SDS011;10518;50.742;4.226;2022-12-29T14:42:43;2.33;;;0.67;;
20713;SDS011;10518;50.742;4.226;2022-12-29T14:47:42;4.10;;;0.67;;
20713;SDS011;10518;50.742;4.226;2022-12-29T14:52:53;0.57;;;0.30;;
20713;SDS011;10518;50.742;4.226;2022-12-29T14:58:38;0.40;;;0.40;;
20713;SDS011;10518;50.742;4.226;2022-12-29T15:01:20;0.97;;;0.77;;
20713;SDS011;10518;50.742;4.226;2022-12-29T15:04:13;6.70;;;0.60;;
20713;SDS011;10518;50.742;4.226;2022-12-29T15:06:44;0.40;;;0.37;;
20713;SDS011;10518;50.742;4.226;2022-12-29T15:14:56;0.47;;;0.33;;
20713;SDS011;10518;50.742;4.226;2022-12-29T15:17:24;7.83;;;0.40;;
20713;SDS011;10518;50.742;4.226;2022-12-29T15:19:56;0.57;;;0.57;;
20713;SDS011;10518;50.742;4.226;2022-12-29T15:22:23;13.87;;;0.97;;
20713;SDS011;10518;50.742;4.226;2022-12-29T15:24:50;0.50;;;0.50;;
20713;SDS011;10518;50.742;4.226;2022-12-29T15:27:24;2.13;;;0.67;;
20713;SDS011;10518;50.742;4.226;2022-12-29T15:29:58;1.13;;;0.77;;
20713;SDS011;10518;50.742;4.226;2022-12-29T15:32:27;2.27;;;1.73;;
20713;SDS011;10518;50.742;4.226;2022-12-29T15:34:55;0.50;;;0.50;;
20713;SDS011;10518;50.742;4.226;2022-12-29T15:37:26;0.73;;;0.50;;
20713;SDS011;10518;50.742;4.226;2022-12-29T15:39:53;1.10;;;0.67;;
20713;SDS011;10518;50.742;4.226;2022-12-29T15:45:13;1.47;;;0.50;;
20713;SDS011;10518;50.742;4.226;2022-12-29T15:47:41;0.60;;;0.47;;
20713;SDS011;10518;50.742;4.226;2022-12-29T15:50:13;2.50;;;1.07;;
20713;SDS011;10518;50.742;4.226;2022-12-29T15:52:49;2.63;;;0.73;;
20713;SDS011;10518;50.742;4.226;2022-12-29T15:55:35;7.93;;;1.07;;
20713;SDS011;10518;50.742;4.226;2022-12-29T15:58:03;4.30;;;1.00;;
20713;SDS011;10518;50.742;4.226;2022-12-29T16:00:34;0.60;;;0.60;;
20713;SDS011;10518;50.742;4.226;2022-12-29T16:03:03;0.60;;;0.57;;
20713;SDS011;10518;50.742;4.226;2022-12-29T16:05:32;0.83;;;0.67;;
20713;SDS011;10518;50.742;4.226;2022-12-29T16:08:02;3.20;;;1.60;;
20713;SDS011;10518;50.742;4.226;2022-12-29T16:10:39;1.63;;;1.23;;
20713;SDS011;10518;50.742;4.226;2022-12-29T16:13:29;2.23;;;1.23;;
20713;SDS011;10518;50.742;4.226;2022-12-29T16:15:54;2.33;;;0.93;;
20713;SDS011;10518;50.742;4.226;2022-12-29T16:18:25;1.67;;;0.90;;
20713;SDS011;10518;50.742;4.226;2022-12-29T16:20:53;4.90;;;0.77;;
20713;SDS011;10518;50.742;4.226;2022-12-29T16:23:20;0.40;;;0.40;;
20713;SDS011;10518;50.742;4.226;2022-12-29T16:25:49;7.33;;;0.87;;
20713;SDS011;10518;50.742;4.226;2022-12-29T16:28:20;5.10;;;0.50;;
20713;SDS011;10518;50.742;4.226;2022-12-29T16:30:58;4.07;;;1.43;;
20713;SDS011;10518;50.742;4.226;2022-12-29T16:33:35;5.47;;;1.13;;
20713;SDS011;10518;50.742;4.226;2022-12-29T16:36:21;3.83;;;0.90;;
20713;SDS011;10518;50.742;4.226;2022-12-29T16:39:02;3.10;;;1.20;;
20713;SDS011;10518;50.742;4.226;2022-12-29T16:41:36;2.40;;;0.90;;
20713;SDS011;10518;50.742;4.226;2022-12-29T16:44:12;1.03;;;0.73;;
20713;SDS011;10518;50.742;4.226;2022-12-29T16:46:58;6.23;;;0.93;;
20713;SDS011;10518;50.742;4.226;2022-12-29T16:49:27;0.30;;;0.30;;
20713;SDS011;10518;50.742;4.226;2022-12-29T16:51:54;2.20;;;0.80;;
20713;SDS011;10518;50.742;4.226;2022-12-29T16:54:25;3.43;;;0.80;;
20713;SDS011;10518;50.742;4.226;2022-12-29T16:56:57;4.90;;;1.23;;
20713;SDS011;10518;50.742;4.226;2022-12-29T16:59:33;1.37;;;0.47;;
20713;SDS011;10518;50.742;4.226;2022-12-29T17:02:13;2.67;;;0.87;;
20713;SDS011;10518;50.742;4.226;2022-12-29T17:04:41;5.20;;;0.93;;
20713;SDS011;10518;50.742;4.226;2022-12-29T17:07:17;0.97;;;0.50;;
20713;SDS011;10518;50.742;4.226;2022-12-29T17:09:44;5.43;;;1.40;;
20713;SDS011;10518;50.742;4.226;2022-12-29T17:12:10;1.73;;;0.70;;
20713;SDS011;10518;50.742;4.226;2022-12-29T17:14:44;4.80;;;0.90;;
20713;SDS011;10518;50.742;4.226;2022-12-29T17:17:18;0.47;;;0.47;;
20713;SDS011;10518;50.742;4.226;2022-12-29T17:20:05;1.93;;;1.33;;
20713;SDS011;10518;50.742;4.226;2022-12-29T17:22:45;10.53;;;1.03;;
20713;SDS011;10518;50.742;4.226;2022-12-29T17:25:22;0.57;;;0.47;;
20713;SDS011;10518;50.742;4.226;2022-12-29T17:30:20;1.37;;;1.13;;